createdAt,value
2019-04-22T00:02:03.877Z,99.20
2019-04-22T00:04:45.258Z,99.10
2019-04-22T00:07:22.768Z,99.50
2019-04-22T00:09:58.478Z,99.60
2019-04-22T00:12:28.020Z,99.50
2019-04-22T00:14:52.992Z,99.90
2019-04-22T00:20:04.400Z,99.90
2019-04-22T00:22:30.209Z,99.90
2019-04-22T00:25:10.573Z,99.90
2019-04-22T00:27:41.553Z,99.90
2019-04-22T00:32:55.540Z,99.90
2019-04-22T00:35:33.157Z,99.90
2019-04-22T00:38:08.942Z,99.90
2019-04-22T00:40:34.132Z,99.90
2019-04-22T00:43:12.030Z,99.90
2019-04-22T00:45:40.470Z,99.90
2019-04-22T00:48:09.131Z,99.90
2019-04-22T00:50:44.339Z,99.90
2019-04-22T00:53:11.637Z,99.90
2019-04-22T00:56:08.123Z,99.90
2019-04-22T00:58:39.446Z,99.90
2019-04-22T01:01:12.623Z,99.90
2019-04-22T01:03:46.175Z,99.90
2019-04-22T01:06:14.536Z,99.90
2019-04-22T01:08:43.181Z,99.90
2019-04-22T01:11:13.356Z,99.90
2019-04-22T01:13:39.743Z,99.90
2019-04-22T01:16:14.010Z,99.90
2019-04-22T01:18:38.218Z,99.90
2019-04-22T01:21:17.439Z,99.90
2019-04-22T01:23:34.601Z,99.90
2019-04-22T01:26:07.980Z,99.90
2019-04-22T01:28:39.960Z,99.90
2019-04-22T01:31:02.588Z,99.90
2019-04-22T01:33:33.397Z,99.90
2019-04-22T01:36:16.897Z,99.90
2019-04-22T01:38:51.171Z,99.90
2019-04-22T01:41:23.590Z,99.90
2019-04-22T01:44:02.179Z,99.90
2019-04-22T01:46:24.773Z,99.90
2019-04-22T01:48:57.487Z,99.90
2019-04-22T01:51:28.342Z,99.90
2019-04-22T01:54:00.144Z,99.90
2019-04-22T01:56:27.579Z,99.90
2019-04-22T01:58:49.598Z,99.90
2019-04-22T02:01:35.744Z,99.90
2019-04-22T02:04:01.250Z,99.90
2019-04-22T02:06:40.766Z,99.90
2019-04-22T02:09:20.411Z,99.90
2019-04-22T02:11:39.047Z,99.90
2019-04-22T02:14:09.218Z,99.90
2019-04-22T02:16:39.470Z,99.90
2019-04-22T02:19:11.701Z,99.90
2019-04-22T02:21:38.644Z,99.90
2019-04-22T02:24:09.756Z,99.90
2019-04-22T02:26:48.243Z,99.90
2019-04-22T02:29:09.168Z,99.90
2019-04-22T02:31:44.996Z,99.90
2019-04-22T02:41:43.927Z,99.90
2019-04-22T02:44:13.506Z,99.90
2019-04-22T02:46:53.016Z,99.90
2019-04-22T02:51:38.091Z,99.90
2019-04-22T02:54:29.919Z,99.90
2019-04-22T03:10:37.392Z,99.90
2019-04-22T03:11:56.675Z,99.90
2019-04-22T03:14:38.105Z,99.90
2019-04-22T03:21:57.909Z,99.90
2019-04-22T03:24:25.770Z,99.90
2019-04-22T03:40:16.530Z,99.90
2019-04-22T03:42:51.969Z,99.90
2019-04-22T03:45:23.495Z,99.90
2019-04-22T03:47:45.320Z,99.90
2019-04-22T03:50:25.875Z,99.90
2019-04-22T03:52:39.091Z,99.90
2019-04-22T03:55:15.554Z,99.90
2019-04-22T03:57:50.062Z,99.90
2019-04-22T04:00:30.316Z,99.90
2019-04-22T04:05:34.018Z,99.90
2019-04-22T04:20:32.504Z,99.90
2019-04-22T04:35:33.224Z,99.90
2019-04-22T04:42:58.344Z,99.90
2019-04-22T04:45:40.580Z,99.90
2019-04-22T04:47:54.861Z,99.90
2019-04-22T04:50:25.253Z,99.90
2019-04-22T04:53:09.811Z,99.90
2019-04-22T04:58:24.952Z,99.90
2019-04-22T05:03:10.649Z,99.90
2019-04-22T05:05:45.723Z,99.90
2019-04-22T05:08:14.757Z,99.90
2019-04-22T05:10:53.695Z,99.90
2019-04-22T05:15:51.114Z,99.90
2019-04-22T05:20:57.156Z,99.90
2019-04-22T05:23:15.995Z,99.90
2019-04-22T05:25:42.755Z,99.90
2019-04-22T05:28:10.551Z,99.90
2019-04-22T05:30:45.791Z,99.90
2019-04-22T05:33:14.242Z,99.90
2019-04-22T05:36:03.074Z,99.90
2019-04-22T05:38:20.089Z,99.90
2019-04-22T05:40:34.694Z,99.90
2019-04-22T05:43:17.627Z,99.90
2019-04-22T05:45:47.341Z,99.90
2019-04-22T05:48:18.348Z,99.90
2019-04-22T05:50:45.096Z,99.90
2019-04-22T05:53:14.868Z,99.90
2019-04-22T05:55:51.791Z,99.90
2019-04-22T05:58:30.767Z,99.90
2019-04-22T06:03:38.999Z,99.90
2019-04-22T06:06:08.942Z,99.90
2019-04-22T06:08:44.398Z,99.90
2019-04-22T06:11:17.162Z,99.90
2019-04-22T06:13:33.044Z,99.90
2019-04-22T06:16:16.202Z,99.90
2019-04-22T06:18:46.945Z,99.90
2019-04-22T06:21:18.700Z,99.90
2019-04-22T06:23:49.222Z,99.90
2019-04-22T06:26:35.758Z,99.90
2019-04-22T06:28:51.875Z,99.90
2019-04-22T06:31:26.705Z,99.90
2019-04-22T06:33:49.843Z,99.90
2019-04-22T06:36:24.728Z,99.90
2019-04-22T06:38:51.389Z,99.90
2019-04-22T06:41:28.607Z,99.90
2019-04-22T06:43:58.572Z,99.90
2019-04-22T06:46:29.917Z,99.90
2019-04-22T06:48:56.292Z,99.90
2019-04-22T06:51:30.869Z,99.90
2019-04-22T06:54:00.109Z,99.90
2019-04-22T06:56:27.190Z,99.90
2019-04-22T06:58:57.768Z,99.90
2019-04-22T07:01:27.644Z,99.90
2019-04-22T07:04:19.739Z,99.90
2019-04-22T07:06:37.319Z,99.90
2019-04-22T07:11:30.743Z,99.90
2019-04-22T07:16:38.888Z,99.90
2019-04-22T07:19:07.343Z,99.90
2019-04-22T07:21:38.438Z,99.90
2019-04-22T07:24:27.491Z,99.90
2019-04-22T07:26:37.579Z,99.90
2019-04-22T07:29:10.355Z,99.90
2019-04-22T07:31:43.141Z,99.90
2019-04-22T07:34:16.410Z,99.90
2019-04-22T07:39:10.433Z,99.90
2019-04-22T07:46:53.370Z,99.90
2019-04-22T07:49:22.133Z,99.90
2019-04-22T07:51:43.648Z,99.90
2019-04-22T07:54:16.299Z,99.90
2019-04-22T07:56:43.938Z,99.90
2019-04-22T07:59:17.151Z,99.90
2019-04-22T08:01:41.901Z,99.90
2019-04-22T08:04:24.415Z,99.90
2019-04-22T08:06:52.820Z,99.30
2019-04-22T08:09:20.200Z,99.40
2019-04-22T08:11:53.951Z,99.10
2019-04-22T08:14:24.198Z,98.80
2019-04-22T08:16:51.312Z,99.00
2019-04-22T08:19:23.581Z,98.40
2019-04-22T08:21:53.238Z,98.20
2019-04-22T08:24:22.649Z,97.40
2019-04-22T08:26:56.450Z,97.30
2019-04-22T08:29:28.489Z,96.70
2019-04-22T08:31:58.038Z,96.90
2019-04-22T08:34:37.058Z,96.40
2019-04-22T08:37:34.274Z,96.70
2019-04-22T08:39:25.332Z,96.50
2019-04-22T08:41:51.765Z,96.30
2019-04-22T08:44:39.758Z,97.30
2019-04-22T08:47:04.748Z,96.80
2019-04-22T08:49:32.266Z,96.60
2019-04-22T08:52:01.456Z,96.00
2019-04-22T08:54:33.412Z,96.50
2019-04-22T08:57:07.219Z,96.90
2019-04-22T08:59:33.651Z,96.50
2019-04-22T09:02:06.286Z,96.40
2019-04-22T09:04:31.298Z,95.90
2019-04-22T09:09:39.113Z,96.10
2019-04-22T09:12:07.954Z,96.00
2019-04-22T09:14:38.188Z,95.90
2019-04-22T09:17:11.420Z,96.20
2019-04-22T09:19:34.030Z,95.80
2019-04-22T09:22:16.029Z,95.10
2019-04-22T09:24:43.415Z,96.00
2019-04-22T09:27:22.649Z,95.00
2019-04-22T09:29:43.137Z,95.30
2019-04-22T09:32:11.566Z,94.70
2019-04-22T09:34:47.395Z,96.10
2019-04-22T09:37:20.736Z,94.50
2019-04-22T09:39:50.823Z,94.00
2019-04-22T09:42:10.472Z,94.60
2019-04-22T09:44:49.181Z,94.10
2019-04-22T09:47:11.448Z,93.10
2019-04-22T09:50:03.759Z,94.20
2019-04-22T09:52:14.882Z,95.30
2019-04-22T09:54:53.258Z,93.40
2019-04-22T09:57:23.345Z,92.90
2019-04-22T09:59:59.463Z,93.50
2019-04-22T10:02:26.732Z,92.30
2019-04-22T10:04:57.252Z,90.00
2019-04-22T10:07:24.000Z,89.40
2019-04-22T10:10:07.512Z,91.00
2019-04-22T10:12:25.058Z,90.30
2019-04-22T10:14:55.802Z,91.80
2019-04-22T10:17:25.151Z,91.50
2019-04-22T10:19:53.060Z,90.90
2019-04-22T10:27:38.340Z,91.10
2019-04-22T10:32:33.438Z,90.40
2019-04-22T10:35:02.602Z,88.20
2019-04-22T10:37:28.010Z,89.00
2019-04-22T10:40:00.943Z,87.40
2019-04-22T10:42:43.507Z,83.40
2019-04-22T10:45:16.554Z,88.80
2019-04-22T10:47:49.972Z,87.70
2019-04-22T10:50:25.851Z,84.50
2019-04-22T10:52:55.286Z,85.90
2019-04-22T10:55:25.389Z,84.50
2019-04-22T10:57:54.753Z,84.50
2019-04-22T11:00:25.072Z,79.20
2019-04-22T11:02:54.131Z,81.20
2019-04-22T11:05:23.959Z,78.00
2019-04-22T11:07:59.629Z,83.70
2019-04-22T11:10:36.984Z,88.40
2019-04-22T11:12:56.682Z,82.70
2019-04-22T11:15:26.581Z,84.30
2019-04-22T11:17:58.019Z,82.90
2019-04-22T11:20:26.571Z,83.30
2019-04-22T11:22:56.350Z,81.10
2019-04-22T11:25:25.547Z,81.10
2019-04-22T11:27:55.776Z,79.90
2019-04-22T11:30:28.242Z,81.70
2019-04-22T11:32:58.290Z,82.20
2019-04-22T11:35:27.973Z,72.70
2019-04-22T11:37:56.896Z,71.60
2019-04-22T11:40:33.790Z,75.10
2019-04-22T11:42:56.547Z,71.40
2019-04-22T11:45:27.053Z,76.70
2019-04-22T11:47:57.269Z,68.30
2019-04-22T11:50:26.313Z,70.40
2019-04-22T11:52:55.681Z,69.70
2019-04-22T11:55:24.722Z,73.10
2019-04-22T11:57:54.047Z,73.40
2019-04-22T12:00:30.737Z,71.60
2019-04-22T12:03:00.833Z,73.50
2019-04-22T12:05:30.049Z,69.00
2019-04-22T12:07:59.294Z,67.50
2019-04-22T12:10:35.687Z,67.50
2019-04-22T12:13:00.032Z,72.00
2019-04-22T12:15:29.061Z,67.50
2019-04-22T12:17:59.294Z,67.40
2019-04-22T12:20:29.334Z,67.90
2019-04-22T12:22:58.975Z,59.00
2019-04-22T12:25:41.958Z,59.40
2019-04-22T12:27:59.265Z,59.50
2019-04-22T12:30:29.706Z,59.80
2019-04-22T12:32:58.318Z,63.50
2019-04-22T12:35:28.299Z,58.30
2019-04-22T12:38:06.499Z,55.70
2019-04-22T12:40:42.440Z,60.00
2019-04-22T12:43:10.176Z,58.90
2019-04-22T12:45:36.612Z,60.80
2019-04-22T12:48:06.389Z,58.70
2019-04-22T12:50:40.275Z,58.10
2019-04-22T12:53:10.591Z,58.30
2019-04-22T12:55:37.640Z,57.20
2019-04-22T12:58:09.702Z,54.10
2019-04-22T13:00:40.862Z,57.20
2019-04-22T13:03:10.880Z,56.60
2019-04-22T13:05:41.013Z,56.70
2019-04-22T13:08:11.869Z,57.70
2019-04-22T13:10:51.368Z,58.20
2019-04-22T13:13:11.320Z,52.50
2019-04-22T13:15:41.292Z,56.10
2019-04-22T13:18:17.532Z,54.60
2019-04-22T13:20:42.075Z,57.40
2019-04-22T13:23:11.645Z,54.00
2019-04-22T13:25:40.935Z,55.60
2019-04-22T13:28:09.491Z,55.00
2019-04-22T13:30:38.667Z,53.20
2019-04-22T13:33:10.523Z,53.90
2019-04-22T13:35:39.695Z,51.70
2019-04-22T13:38:09.049Z,52.80
2019-04-22T13:40:38.836Z,50.40
2019-04-22T13:43:09.085Z,49.40
2019-04-22T13:45:38.613Z,51.30
2019-04-22T13:48:24.075Z,52.60
2019-04-22T13:53:47.974Z,53.90
2019-04-22T13:56:01.786Z,53.50
2019-04-22T13:58:23.299Z,52.00
2019-04-22T14:00:42.637Z,51.60
2019-04-22T14:03:35.661Z,55.30
2019-04-22T14:06:04.989Z,52.00
2019-04-22T14:08:33.546Z,51.80
2019-04-22T14:11:19.523Z,50.80
2019-04-22T14:13:37.844Z,49.60
2019-04-22T14:16:09.035Z,52.10
2019-04-22T14:18:38.971Z,50.70
2019-04-22T14:21:09.132Z,51.40
2019-04-22T14:23:38.449Z,48.80
2019-04-22T14:26:07.319Z,49.70
2019-04-22T14:28:35.794Z,50.00
2019-04-22T14:31:06.450Z,51.00
2019-04-22T14:33:36.296Z,52.70
2019-04-22T14:36:05.063Z,49.50
2019-04-22T14:38:34.713Z,49.70
2019-04-22T14:41:03.934Z,50.50
2019-04-22T14:44:00.532Z,51.00
2019-04-22T14:46:31.592Z,51.10
2019-04-22T14:49:00.004Z,50.20
2019-04-22T14:51:22.226Z,50.90
2019-04-22T14:53:56.953Z,50.70
2019-04-22T14:56:06.632Z,52.40
2019-04-22T14:58:35.290Z,50.80
2019-04-22T15:01:04.319Z,49.80
2019-04-22T15:03:36.992Z,51.20
2019-04-22T15:06:06.343Z,50.00
2019-04-22T15:08:35.162Z,53.00
2019-04-22T15:11:04.487Z,54.10
2019-04-22T15:13:35.539Z,51.60
2019-04-22T15:16:25.686Z,50.60
2019-04-22T15:19:15.814Z,52.70
2019-04-22T15:21:45.085Z,52.00
2019-04-22T15:24:27.493Z,53.90
2019-04-22T15:26:58.647Z,53.20
2019-04-22T15:29:27.644Z,51.80
2019-04-22T15:31:57.659Z,52.60
2019-04-22T15:34:26.344Z,53.20
2019-04-22T15:36:55.967Z,52.20
2019-04-22T15:39:25.054Z,51.40
2019-04-22T15:42:03.072Z,52.10
2019-04-22T15:44:24.143Z,51.40
2019-04-22T15:46:53.212Z,52.20
2019-04-22T15:49:22.351Z,53.20
2019-04-22T15:51:53.239Z,52.70
2019-04-22T15:54:23.562Z,51.80
2019-04-22T15:56:52.757Z,52.00
2019-04-22T15:59:41.635Z,52.20
2019-04-22T16:01:53.140Z,52.70
2019-04-22T16:04:22.998Z,53.80
2019-04-22T16:06:52.860Z,52.60
2019-04-22T16:09:22.640Z,51.80
2019-04-22T16:11:51.873Z,51.30
2019-04-22T16:14:23.891Z,52.20
2019-04-22T16:16:52.525Z,53.20
2019-04-22T16:19:21.182Z,52.80
2019-04-22T16:21:56.548Z,53.20
2019-04-22T16:24:40.461Z,53.10
2019-04-22T16:27:14.512Z,53.20
2019-04-22T16:29:43.167Z,53.20
2019-04-22T16:32:11.931Z,51.60
2019-04-22T16:34:42.384Z,51.80
2019-04-22T16:37:12.554Z,51.50
2019-04-22T16:39:43.718Z,53.20
2019-04-22T16:42:24.950Z,54.90
2019-04-22T16:44:42.993Z,54.10
2019-04-22T16:47:15.511Z,56.00
2019-04-22T16:49:46.112Z,56.80
2019-04-22T16:52:16.272Z,57.00
2019-04-22T16:54:46.772Z,58.20
2019-04-22T16:57:15.853Z,58.20
2019-04-22T16:59:44.659Z,58.70
2019-04-22T17:02:32.927Z,58.20
2019-04-22T17:05:21.117Z,59.10
2019-04-22T17:07:50.004Z,59.20
2019-04-22T17:10:19.646Z,59.60
2019-04-22T17:12:56.363Z,59.20
2019-04-22T17:15:20.377Z,59.50
2019-04-22T17:17:49.506Z,59.90
2019-04-22T17:20:18.411Z,61.00
2019-04-22T17:22:47.349Z,61.70
2019-04-22T17:25:18.319Z,62.70
2019-04-22T17:27:49.682Z,63.00
2019-04-22T17:30:18.508Z,63.70
2019-04-22T17:32:48.352Z,64.40
2019-04-22T17:35:17.840Z,64.90
2019-04-22T17:37:47.229Z,65.60
2019-04-22T17:40:33.089Z,66.20
2019-04-22T17:43:15.331Z,64.30
2019-04-22T17:45:59.732Z,66.00
2019-04-22T17:48:53.536Z,65.60
2019-04-22T17:51:29.858Z,66.40
2019-04-22T17:53:58.063Z,64.60
2019-04-22T17:56:28.019Z,64.80
2019-04-22T17:58:58.378Z,64.60
2019-04-22T18:01:25.512Z,65.20
2019-04-22T18:03:39.154Z,65.70
2019-04-22T18:06:13.793Z,67.20
2019-04-22T18:08:56.389Z,66.10
2019-04-22T18:11:34.069Z,65.10
2019-04-22T18:14:03.154Z,65.90
2019-04-22T18:16:30.522Z,66.40
2019-04-22T18:18:59.621Z,65.70
2019-04-22T18:21:25.602Z,66.30
2019-04-22T18:23:54.197Z,65.90
2019-04-22T18:26:35.986Z,65.50
2019-04-22T18:29:14.000Z,66.20
2019-04-22T18:31:32.681Z,66.60
2019-04-22T18:34:06.931Z,68.30
2019-04-22T18:36:37.441Z,66.20
2019-04-22T18:39:17.553Z,67.60
2019-04-22T18:41:41.211Z,67.50
2019-04-22T18:44:18.014Z,67.40
2019-04-22T18:46:43.023Z,68.40
2019-04-22T18:49:12.369Z,68.40
2019-04-22T18:51:52.963Z,69.50
2019-04-22T18:54:36.226Z,70.10
2019-04-22T18:57:13.791Z,70.30
2019-04-22T18:59:31.212Z,71.00
2019-04-22T19:01:58.765Z,71.90
2019-04-22T19:04:33.430Z,71.90
2019-04-22T19:07:17.239Z,72.20
2019-04-22T19:09:56.274Z,72.90
2019-04-22T19:14:59.029Z,74.30
2019-04-22T19:17:35.615Z,74.40
2019-04-22T19:19:56.147Z,74.60
2019-04-22T19:22:25.328Z,74.90
2019-04-22T19:24:47.937Z,75.30
2019-04-22T19:27:25.223Z,75.30
2019-04-22T19:29:57.406Z,75.50
2019-04-22T19:32:25.518Z,75.60
2019-04-22T19:34:59.965Z,76.00
2019-04-22T19:37:28.380Z,76.10
2019-04-22T19:40:10.521Z,77.00
2019-04-22T19:42:38.230Z,77.00
2019-04-22T19:45:04.595Z,77.10
2019-04-22T19:47:41.982Z,77.00
2019-04-22T19:50:17.844Z,77.70
2019-04-22T19:52:43.379Z,77.60
2019-04-22T19:55:12.317Z,78.00
2019-04-22T19:57:44.712Z,77.70
2019-04-22T20:00:19.571Z,78.10
2019-04-22T20:03:13.250Z,79.00
2019-04-22T20:05:43.623Z,77.90
2019-04-22T20:08:17.768Z,78.50
2019-04-22T20:10:44.057Z,78.40
2019-04-22T20:13:22.523Z,77.80
2019-04-22T20:15:38.696Z,78.30
2019-04-22T20:18:27.013Z,78.80
2019-04-22T20:20:51.246Z,78.50
2019-04-22T20:23:10.138Z,79.40
2019-04-22T20:25:51.387Z,79.30
2019-04-22T20:28:32.790Z,79.70
2019-04-22T20:30:55.442Z,78.90
2019-04-22T20:33:35.305Z,79.10
2019-04-22T20:36:07.650Z,79.60
2019-04-22T20:38:30.716Z,79.00
2019-04-22T20:41:02.450Z,78.80
2019-04-22T20:43:41.850Z,79.30
2019-04-22T20:46:05.870Z,79.80
2019-04-22T20:48:40.768Z,78.90
2019-04-22T20:51:04.251Z,79.20
2019-04-22T20:53:44.061Z,79.70
2019-04-22T20:56:05.605Z,79.50
2019-04-22T20:58:40.600Z,79.30
2019-04-22T21:01:02.684Z,80.10
2019-04-22T21:03:31.912Z,79.60
2019-04-22T21:06:07.203Z,79.60
2019-04-22T21:08:42.002Z,79.40
2019-04-22T21:11:07.778Z,79.90
2019-04-22T21:13:35.362Z,79.80
2019-04-22T21:16:18.373Z,80.50
2019-04-22T21:18:37.912Z,81.50
2019-04-22T21:21:20.293Z,81.00
2019-04-22T21:23:38.429Z,80.40
2019-04-22T21:26:13.584Z,80.60
2019-04-22T21:28:49.102Z,81.10
2019-04-22T21:31:19.396Z,81.10
2019-04-22T21:33:48.965Z,81.20
2019-04-22T21:36:25.066Z,80.70
2019-04-22T21:38:48.298Z,81.20
2019-04-22T21:41:20.474Z,81.20
2019-04-22T21:43:52.559Z,82.90
2019-04-22T21:46:27.844Z,81.70
2019-04-22T21:48:57.784Z,81.80
2019-04-22T21:51:32.850Z,83.20
2019-04-22T21:56:56.949Z,82.60
2019-04-22T21:59:06.804Z,82.10
2019-04-22T22:01:50.022Z,82.50
2019-04-22T22:04:15.279Z,83.00
2019-04-22T22:06:34.707Z,83.00
2019-04-22T22:09:16.795Z,82.90
2019-04-22T22:11:42.612Z,83.70
2019-04-22T22:14:11.627Z,83.30
2019-04-22T22:16:38.867Z,83.30
2019-04-22T22:19:20.787Z,83.50
2019-04-22T22:21:55.443Z,84.20
2019-04-22T22:24:34.321Z,84.30
2019-04-22T22:26:53.927Z,83.70
2019-04-22T22:29:32.147Z,84.10
2019-04-22T22:31:56.083Z,84.60
2019-04-22T22:34:16.692Z,84.40
2019-04-22T22:36:40.912Z,84.50
2019-04-22T22:39:16.460Z,84.50
2019-04-22T22:41:29.987Z,85.70
2019-04-22T22:44:08.808Z,85.00
2019-04-22T22:46:41.673Z,85.10
2019-04-22T22:49:25.944Z,84.90
2019-04-22T22:52:02.224Z,85.20
2019-04-22T22:54:25.053Z,85.40
2019-04-22T22:57:01.968Z,85.40
2019-04-22T22:59:27.659Z,86.80
2019-04-22T23:01:54.425Z,86.70
2019-04-22T23:04:29.578Z,86.80
2019-04-22T23:07:09.251Z,87.30
2019-04-22T23:09:27.050Z,86.80
2019-04-22T23:12:15.942Z,86.90
2019-04-22T23:14:35.097Z,87.70
2019-04-22T23:16:51.403Z,86.80
2019-04-22T23:19:13.703Z,87.30
2019-04-22T23:21:49.375Z,88.00
2019-04-22T23:24:46.551Z,87.20
2019-04-22T23:27:22.625Z,87.70
2019-04-22T23:30:12.819Z,88.00
2019-04-22T23:32:44.101Z,88.70
2019-04-22T23:35:42.562Z,87.80
2019-04-22T23:38:10.701Z,88.70
2019-04-22T23:40:43.580Z,88.30
2019-04-22T23:45:51.973Z,88.50
2019-04-22T23:48:17.982Z,89.00
2019-04-22T23:50:58.374Z,88.80
2019-04-22T23:53:33.072Z,88.70
2019-04-22T23:56:01.809Z,89.00
2019-04-22T23:58:47.671Z,89.80
